In Rescue
 
Open Full Screen Window  High Contrast Mode
Wind Gusting 00 knots
05
November 29, 2022 8:36 AM EST
Weather Information
Wind Direction
  140 °
Wind Speed
  05 kt (6 mph)
Wind Gust
  00 kt (0 mph)
Altimeter
30.01 in
Visibility
10 SM
Temperature
05° C
41° F
Dewpoint
01° C
34° F
Humidity
76%
Sky Condition
Overcast @ 3,700 ft
VFR

METAR KCFS 291336Z AUTO 14005KT 10SM OVC037 05/01 A3001 RMK AO2 T00500005

FAA Disclaimer: The data displayed is for advisory purposes only and is not to be used for flight planning or operations.